createdAt,value
2018-07-13T00:01:16.389Z,16.73
2018-07-13T00:03:43.554Z,18.30
2018-07-13T00:06:10.745Z,22.37
2018-07-13T00:08:37.871Z,20.83
2018-07-13T00:11:05.036Z,18.07
2018-07-13T00:13:37.585Z,20.40
2018-07-13T00:16:04.709Z,17.47
2018-07-13T00:18:31.837Z,16.87
2018-07-13T00:20:59.024Z,18.97
2018-07-13T00:23:26.202Z,19.07
2018-07-13T00:25:53.336Z,21.40
2018-07-13T00:28:20.440Z,17.00
2018-07-13T00:30:47.573Z,19.40
2018-07-13T00:33:14.688Z,17.83
2018-07-13T00:35:41.836Z,19.77
2018-07-13T00:38:08.984Z,19.60
2018-07-13T00:40:36.092Z,17.87
2018-07-13T00:43:03.544Z,18.80
2018-07-13T00:45:30.672Z,18.07
2018-07-13T00:47:57.793Z,17.20
2018-07-13T00:50:24.936Z,18.67
2018-07-13T00:52:52.045Z,16.23
2018-07-13T00:55:19.151Z,20.37
2018-07-13T00:57:46.262Z,24.73
2018-07-13T01:00:13.378Z,16.03
2018-07-13T01:02:40.540Z,16.60
2018-07-13T01:05:07.665Z,20.27
2018-07-13T01:07:34.804Z,17.17
2018-07-13T01:10:01.955Z,16.00
2018-07-13T01:12:29.071Z,16.97
2018-07-13T01:14:56.236Z,17.87
2018-07-13T01:17:24.468Z,18.77
2018-07-13T01:19:51.632Z,17.03
2018-07-13T01:22:18.747Z,19.20
2018-07-13T01:24:45.872Z,16.03
2018-07-13T01:27:13.012Z,20.17
2018-07-13T01:29:40.140Z,19.07
2018-07-13T01:32:07.269Z,17.10
2018-07-13T01:34:34.376Z,18.43
2018-07-13T01:37:01.497Z,16.57
2018-07-13T01:39:28.616Z,16.13
2018-07-13T01:41:55.753Z,19.03
2018-07-13T01:44:22.860Z,18.13
2018-07-13T01:46:49.968Z,17.47
2018-07-13T01:49:17.079Z,18.90
2018-07-13T01:51:44.251Z,18.83
2018-07-13T01:54:11.362Z,16.33
2018-07-13T01:56:38.455Z,18.53
2018-07-13T01:59:05.573Z,18.90
2018-07-13T02:01:32.680Z,20.23
2018-07-13T02:03:59.792Z,19.67
2018-07-13T02:06:26.928Z,19.97
2018-07-13T02:08:54.037Z,17.97
2018-07-13T02:11:21.193Z,18.67
2018-07-13T02:13:48.624Z,20.77
2018-07-13T02:16:15.736Z,19.03
2018-07-13T02:18:42.855Z,22.20
2018-07-13T02:21:09.974Z,24.00
2018-07-13T02:23:37.145Z,19.17
2018-07-13T02:26:04.381Z,22.50
2018-07-13T02:28:31.537Z,20.50
2018-07-13T02:30:58.692Z,19.80
2018-07-13T02:33:25.839Z,19.97
2018-07-13T02:35:52.952Z,18.23
2018-07-13T02:38:20.060Z,19.80
2018-07-13T02:40:47.172Z,20.17
2018-07-13T02:43:14.291Z,20.20
2018-07-13T02:45:41.412Z,23.57
2018-07-13T02:48:08.536Z,21.67
2018-07-13T02:50:35.656Z,20.73
2018-07-13T02:53:02.775Z,21.60
2018-07-13T02:55:29.912Z,19.70
2018-07-13T02:57:57.021Z,22.67
2018-07-13T03:00:24.160Z,19.33
2018-07-13T03:02:51.295Z,18.33
2018-07-13T03:05:18.420Z,17.70
2018-07-13T03:07:45.528Z,21.73
2018-07-13T03:10:12.637Z,21.07
2018-07-13T03:12:39.764Z,19.17
2018-07-13T03:15:06.907Z,20.27
2018-07-13T03:17:34.020Z,21.20
2018-07-13T03:20:01.157Z,18.67
2018-07-13T03:22:28.301Z,19.23
2018-07-13T03:24:55.423Z,19.77
2018-07-13T03:27:22.552Z,19.00
2018-07-13T03:29:49.700Z,21.37
2018-07-13T03:32:16.808Z,18.27
2018-07-13T03:34:43.923Z,22.90
2018-07-13T03:37:11.053Z,21.77
2018-07-13T03:39:38.215Z,21.40
2018-07-13T03:42:05.344Z,21.83
2018-07-13T03:44:32.464Z,21.13
2018-07-13T03:46:59.639Z,23.43
2018-07-13T03:49:26.756Z,23.03
2018-07-13T03:51:53.870Z,23.10
2018-07-13T03:54:21.000Z,25.33
2018-07-13T03:56:48.116Z,21.83
2018-07-13T03:59:15.258Z,24.53
2018-07-13T04:01:42.496Z,26.10
2018-07-13T04:04:09.624Z,26.57
2018-07-13T04:06:36.816Z,27.93
2018-07-13T04:09:06.380Z,25.37
2018-07-13T04:11:33.493Z,22.37
2018-07-13T04:14:00.646Z,24.63
2018-07-13T04:16:27.776Z,23.73
2018-07-13T04:18:54.906Z,25.13
2018-07-13T04:21:22.084Z,26.07
2018-07-13T04:23:49.237Z,25.30
2018-07-13T04:26:16.396Z,23.33
2018-07-13T04:28:43.540Z,25.40
2018-07-13T04:31:10.672Z,23.03
2018-07-13T04:33:37.781Z,24.77
2018-07-13T04:36:04.894Z,26.03
2018-07-13T04:38:32.018Z,25.03
2018-07-13T04:40:59.213Z,24.60
2018-07-13T04:43:26.300Z,26.63
2018-07-13T04:45:53.449Z,27.77
2018-07-13T04:48:20.612Z,26.83
2018-07-13T04:50:47.771Z,48.87
2018-07-13T04:53:14.933Z,38.90
2018-07-13T04:55:42.076Z,54.90
2018-07-13T04:58:09.228Z,35.53
2018-07-13T05:00:36.413Z,144.23
2018-07-13T05:03:03.552Z,50.03
2018-07-13T05:05:30.701Z,56.00
2018-07-13T05:07:57.832Z,67.63
2018-07-13T05:10:24.970Z,43.40
2018-07-13T05:12:52.095Z,31.80
2018-07-13T05:15:19.240Z,45.80
2018-07-13T05:17:46.399Z,42.80
2018-07-13T05:20:13.545Z,41.70
2018-07-13T05:22:40.707Z,47.63
2018-07-13T05:25:08.472Z,83.47
2018-07-13T05:27:35.632Z,46.83
2018-07-13T05:30:03.233Z,40.47
2018-07-13T05:32:30.393Z,57.00
2018-07-13T05:34:58.044Z,50.23
2018-07-13T05:37:25.857Z,53.00
2018-07-13T05:39:52.988Z,55.90
2018-07-13T05:42:20.157Z,34.47
2018-07-13T05:44:47.305Z,77.60
2018-07-13T05:47:14.480Z,40.93
2018-07-13T05:49:41.717Z,60.00
2018-07-13T05:52:08.813Z,39.27
2018-07-13T05:54:35.961Z,141.10
2018-07-13T05:57:03.122Z,71.93
2018-07-13T05:59:30.324Z,41.60
2018-07-13T06:01:57.489Z,48.33
2018-07-13T06:04:24.673Z,58.73
2018-07-13T06:06:51.939Z,47.70
2018-07-13T06:09:19.076Z,34.70
2018-07-13T06:11:46.229Z,53.17
2018-07-13T06:14:13.367Z,36.40
2018-07-13T06:16:40.468Z,113.27
2018-07-13T06:19:07.604Z,182.60
2018-07-13T06:21:34.730Z,940.77
2018-07-13T06:24:02.729Z,248.10
2018-07-13T06:26:29.851Z,637.93
2018-07-13T06:28:56.982Z,247.13
2018-07-13T06:31:24.129Z,204.67
2018-07-13T06:33:51.257Z,232.17
2018-07-13T06:36:18.413Z,190.10
2018-07-13T06:38:45.556Z,470.43
2018-07-13T06:41:12.796Z,1999.90
2018-07-13T06:43:39.944Z,281.87
2018-07-13T06:46:07.068Z,1430.07
2018-07-13T06:48:34.229Z,77.93
2018-07-13T06:51:01.401Z,511.03
2018-07-13T06:53:28.601Z,227.60
2018-07-13T06:55:55.721Z,143.73
2018-07-13T06:58:34.396Z,107.63
2018-07-13T07:01:02.440Z,33.83
2018-07-13T07:03:31.080Z,21.47
2018-07-13T07:06:00.227Z,531.10
2018-07-13T07:08:27.613Z,105.20
2018-07-13T07:10:54.920Z,342.47
2018-07-13T07:13:29.941Z,53.70
2018-07-13T07:15:57.328Z,666.10
2018-07-13T07:18:24.461Z,192.80
2018-07-13T07:20:51.604Z,163.60
2018-07-13T07:23:18.750Z,97.37
2018-07-13T07:25:45.901Z,762.97
2018-07-13T07:28:13.049Z,23.27
2018-07-13T07:30:40.284Z,361.53
2018-07-13T07:33:07.493Z,12.50
2018-07-13T07:35:34.650Z,118.33
2018-07-13T07:38:01.771Z,70.83
2018-07-13T07:40:29.020Z,16.23
2018-07-13T07:42:56.176Z,33.70
2018-07-13T07:45:23.327Z,28.17
2018-07-13T07:47:50.437Z,68.73
2018-07-13T07:50:17.600Z,50.37
2018-07-13T07:52:44.737Z,12.90
2018-07-13T07:55:11.865Z,50.70
2018-07-13T07:57:39.087Z,281.73
2018-07-13T08:00:06.193Z,11.87
2018-07-13T08:02:33.340Z,11.87
2018-07-13T08:05:00.452Z,81.97
2018-07-13T08:07:27.631Z,10.27
2018-07-13T08:09:54.712Z,302.90
2018-07-13T08:12:21.823Z,312.57
2018-07-13T08:14:48.992Z,35.80
2018-07-13T08:17:16.126Z,9.13
2018-07-13T08:19:43.330Z,9.07
2018-07-13T08:22:13.272Z,9.03
2018-07-13T08:24:40.474Z,24.27
2018-07-13T08:27:11.217Z,10.83
2018-07-13T08:29:39.445Z,15.77
2018-07-13T08:32:06.624Z,113.83
2018-07-13T08:34:33.740Z,11.67
2018-07-13T08:37:01.168Z,58.37
2018-07-13T08:39:28.325Z,320.70
2018-07-13T08:41:55.464Z,69.70
2018-07-13T08:44:22.602Z,92.23
2018-07-13T08:46:49.831Z,57.43
2018-07-13T08:49:16.985Z,43.90
2018-07-13T08:51:44.292Z,57.03
2018-07-13T08:54:11.392Z,16.73
2018-07-13T08:56:38.552Z,33.30
2018-07-13T08:59:05.784Z,10.20
2018-07-13T09:01:32.999Z,9.87
2018-07-13T09:04:00.119Z,80.00
2018-07-13T09:06:27.356Z,10.67
2018-07-13T09:08:54.428Z,13.20
2018-07-13T09:11:21.581Z,27.47
2018-07-13T09:13:48.919Z,11.83
2018-07-13T09:16:16.046Z,31.63
2018-07-13T09:18:43.192Z,13.47
2018-07-13T09:21:10.341Z,36.07
2018-07-13T09:23:37.500Z,29.00
2018-07-13T09:26:04.668Z,12.03
2018-07-13T09:28:31.807Z,40.30
2018-07-13T09:30:58.940Z,269.67
2018-07-13T09:33:26.061Z,11.93
2018-07-13T09:35:53.232Z,9.83
2018-07-13T09:38:20.432Z,14.27
2018-07-13T09:40:47.529Z,332.73
2018-07-13T09:43:14.641Z,117.23
2018-07-13T09:45:41.771Z,29.57
2018-07-13T09:48:08.920Z,59.63
2018-07-13T09:50:36.120Z,12.67
2018-07-13T09:53:03.256Z,8.33
2018-07-13T09:55:30.410Z,10.37
2018-07-13T09:57:57.536Z,48.57
2018-07-13T10:00:29.308Z,11.07
2018-07-13T10:02:56.452Z,11.03
2018-07-13T10:05:23.617Z,9.10
2018-07-13T10:07:50.788Z,49.40
2018-07-13T10:10:17.932Z,12.93
2018-07-13T10:12:45.074Z,11.83
2018-07-13T10:15:12.214Z,16.47
2018-07-13T10:17:39.350Z,8.33
2018-07-13T10:20:06.494Z,29.20
2018-07-13T10:22:34.032Z,5.77
2018-07-13T10:25:02.516Z,5.80
2018-07-13T10:27:31.735Z,27.50
2018-07-13T10:29:59.905Z,9.47
2018-07-13T10:32:27.061Z,26.90
2018-07-13T10:34:54.251Z,5.30
2018-07-13T10:37:21.524Z,77.33
2018-07-13T10:39:48.668Z,156.20
2018-07-13T10:42:15.792Z,15.57
2018-07-13T10:44:42.917Z,106.63
2018-07-13T10:47:10.060Z,11.57
2018-07-13T10:49:37.196Z,45.17
2018-07-13T10:52:04.355Z,41.57
2018-07-13T10:54:31.473Z,8.57
2018-07-13T10:56:58.656Z,53.30
2018-07-13T10:59:25.744Z,9.30
2018-07-13T11:01:52.901Z,14.63
2018-07-13T11:04:20.025Z,7.90
2018-07-13T11:06:47.132Z,7.30
2018-07-13T11:09:14.376Z,7.30
2018-07-13T11:11:41.493Z,15.20
2018-07-13T11:14:09.153Z,7.93
2018-07-13T11:16:36.314Z,11.23
2018-07-13T11:19:03.452Z,7.63
2018-07-13T11:21:30.576Z,52.37
2018-07-13T11:23:57.707Z,6.77
2018-07-13T11:26:24.888Z,27.10
2018-07-13T11:28:52.012Z,10.37
2018-07-13T11:31:19.149Z,42.57
2018-07-13T11:33:46.321Z,9.63
2018-07-13T11:36:13.440Z,3.63
2018-07-13T11:38:40.589Z,4.60
2018-07-13T11:41:07.733Z,7.20
2018-07-13T11:43:34.873Z,12.40
2018-07-13T11:46:02.010Z,4.93
2018-07-13T11:48:29.121Z,15.93
2018-07-13T11:50:56.228Z,28.80
2018-07-13T11:53:23.356Z,5.83
2018-07-13T11:55:50.460Z,41.60
2018-07-13T11:58:17.577Z,7.77
2018-07-13T12:00:44.717Z,1206.63
2018-07-13T12:03:11.832Z,1991.90
2018-07-13T12:05:38.936Z,1999.90
2018-07-13T12:08:06.068Z,1999.90
2018-07-13T12:10:33.260Z,1999.90
2018-07-13T12:13:00.420Z,1999.90
2018-07-13T12:15:27.540Z,1999.90
2018-07-13T12:17:54.662Z,1999.90
2018-07-13T12:20:21.785Z,1999.90
2018-07-13T12:22:48.927Z,1999.90
2018-07-13T12:25:16.046Z,1999.90
2018-07-13T12:27:43.158Z,1999.90
2018-07-13T12:30:10.273Z,1999.90
2018-07-13T12:32:37.436Z,1999.90
2018-07-13T12:35:04.595Z,1999.90
2018-07-13T12:37:31.727Z,1999.90
2018-07-13T12:39:58.920Z,1999.90
2018-07-13T12:42:26.007Z,1999.90
2018-07-13T12:44:53.133Z,1999.90
2018-07-13T12:47:20.257Z,1999.90
2018-07-13T12:49:47.389Z,1999.90
2018-07-13T12:52:14.504Z,1999.90
2018-07-13T12:54:41.734Z,1999.90
2018-07-13T12:57:08.839Z,1999.90
2018-07-13T12:59:36.052Z,1999.90
2018-07-13T13:02:03.136Z,1999.90
2018-07-13T13:04:30.270Z,1999.90
2018-07-13T13:06:57.412Z,1999.90
2018-07-13T13:09:24.529Z,1999.90
2018-07-13T13:11:51.648Z,1999.90
2018-07-13T13:14:18.778Z,1999.90
2018-07-13T13:16:45.937Z,1999.90
2018-07-13T13:19:13.110Z,1999.90
2018-07-13T13:21:40.276Z,1999.90
2018-07-13T13:24:07.365Z,1999.90
2018-07-13T13:26:34.480Z,1999.90
2018-07-13T13:29:01.634Z,1999.90
2018-07-13T13:31:28.769Z,1999.90
2018-07-13T13:33:55.900Z,1999.90
2018-07-13T13:36:23.075Z,1999.90
2018-07-13T13:38:50.153Z,1999.90
2018-07-13T13:41:17.264Z,1999.90
2018-07-13T13:43:44.376Z,1999.90
2018-07-13T13:46:11.533Z,1999.90
2018-07-13T13:48:38.653Z,1999.90
2018-07-13T13:51:05.785Z,1999.90
2018-07-13T13:53:32.935Z,1999.90
2018-07-13T13:56:00.062Z,1999.90
2018-07-13T13:58:27.180Z,1999.90
2018-07-13T14:00:54.337Z,1999.90
2018-07-13T14:03:21.460Z,1999.90
2018-07-13T14:05:48.649Z,1999.90
2018-07-13T14:08:16.456Z,1999.90
2018-07-13T14:10:43.596Z,1999.90
2018-07-13T14:13:10.720Z,1999.90
2018-07-13T14:15:37.980Z,1999.90
2018-07-13T14:18:05.144Z,1999.90
2018-07-13T14:20:32.245Z,1999.90
2018-07-13T14:22:59.433Z,1999.90
2018-07-13T14:25:26.631Z,1999.90
2018-07-13T14:27:53.748Z,1999.90
2018-07-13T14:30:23.100Z,1999.90
2018-07-13T14:32:50.212Z,1999.90
2018-07-13T14:35:17.348Z,1999.90
2018-07-13T14:37:44.499Z,1999.90
2018-07-13T14:40:11.648Z,1999.90
2018-07-13T14:42:38.785Z,1999.90
2018-07-13T14:45:05.950Z,1999.90
2018-07-13T14:47:33.092Z,1999.90
2018-07-13T14:50:00.220Z,1999.90
2018-07-13T14:52:27.376Z,1999.90
2018-07-13T14:54:54.521Z,1999.90
2018-07-13T14:57:21.645Z,1999.90
2018-07-13T14:59:49.004Z,1999.90
2018-07-13T15:02:16.074Z,1999.90
2018-07-13T15:04:43.213Z,1999.90
2018-07-13T15:07:10.446Z,1999.90
2018-07-13T15:09:37.565Z,1999.90
2018-07-13T15:12:04.700Z,1999.90
2018-07-13T15:14:31.868Z,1999.90
2018-07-13T15:16:58.994Z,1999.90
2018-07-13T15:19:26.113Z,1999.90
2018-07-13T15:21:53.342Z,1999.90
2018-07-13T15:24:20.388Z,1999.90
2018-07-13T15:26:47.508Z,1999.90
2018-07-13T15:29:14.656Z,1999.90
2018-07-13T15:31:41.808Z,1999.90
2018-07-13T15:34:08.960Z,1999.90
2018-07-13T15:36:36.104Z,1999.90
2018-07-13T15:39:04.019Z,1999.90
2018-07-13T15:41:31.132Z,1999.90
2018-07-13T15:43:58.264Z,1999.90
2018-07-13T15:46:25.398Z,1999.90
2018-07-13T15:48:52.536Z,1999.90
2018-07-13T15:51:19.721Z,1999.90
2018-07-13T15:53:46.904Z,1999.90
2018-07-13T15:56:14.024Z,1999.90
2018-07-13T15:58:41.201Z,1999.90
2018-07-13T16:01:08.344Z,1999.90
2018-07-13T16:03:35.520Z,1999.90
2018-07-13T16:06:02.670Z,1999.90
2018-07-13T16:08:29.828Z,1999.90
2018-07-13T16:10:56.957Z,1999.90
2018-07-13T16:13:24.069Z,1999.90
2018-07-13T16:15:51.181Z,1999.90
2018-07-13T16:18:18.297Z,1999.90
2018-07-13T16:20:45.407Z,1999.90
2018-07-13T16:23:12.557Z,1999.90
2018-07-13T16:25:39.684Z,1999.90
2018-07-13T16:28:06.847Z,1999.90
2018-07-13T16:30:33.940Z,1999.90
2018-07-13T16:33:01.072Z,1999.90
2018-07-13T16:35:28.197Z,1999.90
2018-07-13T16:37:55.308Z,1999.90
2018-07-13T16:40:22.440Z,1999.90
2018-07-13T16:42:49.914Z,1999.90
2018-07-13T16:45:17.028Z,1999.90
2018-07-13T16:47:44.164Z,1999.90
2018-07-13T16:50:11.320Z,1999.90
2018-07-13T16:52:38.465Z,1999.90
2018-07-13T16:55:05.592Z,1999.90
2018-07-13T16:57:32.731Z,1999.90
2018-07-13T16:59:59.847Z,1999.90
2018-07-13T17:02:26.969Z,1999.90
2018-07-13T17:04:54.138Z,1999.90
2018-07-13T17:07:21.268Z,1999.90
2018-07-13T17:09:48.400Z,1999.90
2018-07-13T17:12:15.540Z,1999.90
2018-07-13T17:14:42.680Z,1999.90
2018-07-13T17:17:09.804Z,1999.90
2018-07-13T17:19:36.936Z,1999.90
2018-07-13T17:22:04.388Z,1999.90
2018-07-13T17:24:31.512Z,1999.90
2018-07-13T17:26:58.635Z,1999.90
2018-07-13T17:29:25.760Z,1999.90
2018-07-13T17:31:52.885Z,1999.90
2018-07-13T17:34:19.996Z,1999.90
2018-07-13T17:36:47.154Z,1999.90
2018-07-13T17:39:14.375Z,1999.90
2018-07-13T17:41:41.490Z,1999.90
2018-07-13T17:44:08.621Z,1999.90
2018-07-13T17:46:35.761Z,1999.90
2018-07-13T17:49:02.892Z,1999.90
2018-07-13T17:51:30.008Z,1999.90
2018-07-13T17:53:57.141Z,1999.90
2018-07-13T17:56:24.292Z,1999.90
2018-07-13T17:58:51.452Z,1999.90
2018-07-13T18:01:18.576Z,1999.90
2018-07-13T18:03:45.708Z,1999.90
2018-07-13T18:06:12.829Z,1999.90
2018-07-13T18:08:39.960Z,1999.90
2018-07-13T18:11:07.092Z,1999.90
2018-07-13T18:13:34.256Z,1999.90
2018-07-13T18:16:01.380Z,1999.90
2018-07-13T18:18:28.508Z,1999.90
2018-07-13T18:20:55.632Z,1999.90
2018-07-13T18:23:23.000Z,1999.90
2018-07-13T18:25:50.143Z,1999.90
2018-07-13T18:28:17.341Z,1999.90
2018-07-13T18:30:44.427Z,1999.90
2018-07-13T18:33:11.549Z,1999.90
2018-07-13T18:35:38.660Z,1999.90
2018-07-13T18:38:05.804Z,1999.90
2018-07-13T18:40:32.933Z,1999.90
2018-07-13T18:43:00.043Z,1999.90
2018-07-13T18:45:27.176Z,1999.90
2018-07-13T18:47:54.298Z,1999.90
2018-07-13T18:50:21.428Z,1999.90
2018-07-13T18:52:48.800Z,1999.90
2018-07-13T18:55:15.933Z,1999.90
2018-07-13T18:57:43.054Z,1999.90
2018-07-13T19:00:10.197Z,1999.90
2018-07-13T19:02:37.325Z,1999.90
2018-07-13T19:05:04.460Z,1999.90
2018-07-13T19:07:31.568Z,1999.90
2018-07-13T19:09:58.689Z,1999.90
2018-07-13T19:12:25.812Z,1999.90
2018-07-13T19:14:52.936Z,1999.90
2018-07-13T19:17:20.104Z,1999.90
2018-07-13T19:19:47.215Z,1999.90
2018-07-13T19:22:14.336Z,1999.90
2018-07-13T19:24:41.495Z,1999.90
2018-07-13T19:27:08.622Z,1999.90
2018-07-13T19:29:35.828Z,1999.90
2018-07-13T19:32:02.976Z,1999.90
2018-07-13T19:34:30.197Z,1999.90
2018-07-13T19:36:57.273Z,1999.90
2018-07-13T19:39:24.409Z,1999.90
2018-07-13T19:41:51.549Z,1999.90
2018-07-13T19:44:18.673Z,1999.90
2018-07-13T19:46:45.801Z,1999.90
2018-07-13T19:49:12.916Z,1999.90
2018-07-13T19:51:40.098Z,1999.90
2018-07-13T19:54:07.180Z,1999.90
2018-07-13T19:56:34.344Z,1999.90
2018-07-13T19:59:01.464Z,1999.90
2018-07-13T20:01:28.576Z,1999.90
2018-07-13T20:03:55.700Z,1999.90
2018-07-13T20:06:22.832Z,1979.80
2018-07-13T20:08:50.029Z,1880.43
2018-07-13T20:11:17.174Z,1999.90
2018-07-13T20:13:44.289Z,1999.90
2018-07-13T20:16:11.452Z,1999.90
2018-07-13T20:18:38.556Z,1999.90
2018-07-13T20:21:06.495Z,1046.53
2018-07-13T20:23:33.612Z,1928.53
2018-07-13T20:26:00.777Z,511.57
2018-07-13T20:28:27.904Z,1166.93
2018-07-13T20:30:55.037Z,1086.47
2018-07-13T20:33:22.212Z,1592.33
2018-07-13T20:35:49.320Z,831.70
2018-07-13T20:38:16.452Z,1218.17
2018-07-13T20:40:43.576Z,523.27
2018-07-13T20:43:10.697Z,461.37
2018-07-13T20:45:37.815Z,910.47
2018-07-13T20:48:04.976Z,591.30
2018-07-13T20:50:32.112Z,557.03
2018-07-13T20:52:59.227Z,375.03
2018-07-13T20:55:26.328Z,606.83
2018-07-13T20:57:53.488Z,618.80
2018-07-13T21:00:20.698Z,291.10
2018-07-13T21:02:48.107Z,424.33
2018-07-13T21:05:15.224Z,248.27
2018-07-13T21:07:42.344Z,497.23
2018-07-13T21:10:09.544Z,127.20
2018-07-13T21:12:36.660Z,273.83
2018-07-13T21:15:04.177Z,163.30
2018-07-13T21:17:31.293Z,182.20
2018-07-13T21:19:58.461Z,183.10
2018-07-13T21:22:25.536Z,154.47
2018-07-13T21:24:52.712Z,90.97
2018-07-13T21:27:19.791Z,60.27
2018-07-13T21:29:46.915Z,106.83
2018-07-13T21:32:14.044Z,76.07
2018-07-13T21:34:41.165Z,41.57
2018-07-13T21:37:08.285Z,46.50
2018-07-13T21:39:35.396Z,35.30
2018-07-13T21:42:02.517Z,41.27
2018-07-13T21:44:29.639Z,9.80
2018-07-13T21:46:56.816Z,8.40
2018-07-13T21:49:23.925Z,134.43
2018-07-13T21:51:51.065Z,11.93
2018-07-13T21:54:18.192Z,12.80
2018-07-13T21:56:45.344Z,11.63
2018-07-13T21:59:12.476Z,11.27
2018-07-13T22:01:39.715Z,8.80
2018-07-13T22:04:06.840Z,15.30
2018-07-13T22:06:33.941Z,7.60
2018-07-13T22:09:01.123Z,8.30
2018-07-13T22:11:28.253Z,9.70
2018-07-13T22:13:55.416Z,10.83
2018-07-13T22:16:22.555Z,9.13
2018-07-13T22:18:49.693Z,9.83
2018-07-13T22:21:16.831Z,8.73
2018-07-13T22:23:43.946Z,6.87
2018-07-13T22:26:11.055Z,9.50
2018-07-13T22:28:38.156Z,8.90
2018-07-13T22:31:05.336Z,10.83
2018-07-13T22:33:32.517Z,7.60
2018-07-13T22:35:59.632Z,12.33
2018-07-13T22:38:26.756Z,12.07
2018-07-13T22:40:53.870Z,16.30
2018-07-13T22:43:21.025Z,12.53
2018-07-13T22:45:48.133Z,12.40
2018-07-13T22:48:15.239Z,10.07
2018-07-13T22:50:42.365Z,13.30
2018-07-13T22:53:09.497Z,10.37
2018-07-13T22:55:36.680Z,11.53
2018-07-13T22:58:03.821Z,9.57
2018-07-13T23:00:30.961Z,10.37
2018-07-13T23:02:58.088Z,9.30
2018-07-13T23:05:25.280Z,10.27
2018-07-13T23:07:52.420Z,7.87
2018-07-13T23:10:19.547Z,8.20
2018-07-13T23:12:46.692Z,7.90
2018-07-13T23:15:13.855Z,8.03
2018-07-13T23:17:40.976Z,8.87
2018-07-13T23:20:08.101Z,9.63
2018-07-13T23:22:35.221Z,17.40
2018-07-13T23:25:02.344Z,9.23
2018-07-13T23:27:29.453Z,10.23
2018-07-13T23:29:56.569Z,11.10
2018-07-13T23:32:23.693Z,11.67
2018-07-13T23:34:50.804Z,11.17
2018-07-13T23:37:17.913Z,9.80
2018-07-13T23:39:45.076Z,10.33
2018-07-13T23:42:12.586Z,9.60
2018-07-13T23:44:39.721Z,9.30
2018-07-13T23:47:06.832Z,8.80
2018-07-13T23:49:33.956Z,9.07
2018-07-13T23:52:01.101Z,9.73
2018-07-13T23:54:28.252Z,10.57
2018-07-13T23:56:55.392Z,35.17
2018-07-13T23:59:22.532Z,19.33
